Latest Weather Observations for Murganella Airstrip

IDD60801

Issued at 11:05 pm CST Wednesday 16 April 2014 (issued every 30 minutes, with the page automatically refreshed every 10 minutes)

About weather observations | Map of weather stations | Latest weather observations for NT | Other Formats
Station Details ID: 014309 Name: MURGANELLA AIRSTRIP Lat: -11.55 Lon: 132.93 Height: 9.5 m
Data from the previous 72 hours. | See also: Recent months for locations in Northern Territory
Date/Time
CST
Temp
°C
App
Temp
°C
Dew
Point
Rel
Hum
%
Delta-T
°C
Wind Press
QNH
hPa
Press
MSL
hPa
Rain
since 9 am
mm
Dir
 
Spd
km/h
Gust
km/h
Spd
kts
Gust
kts
16/11:00pm 24.6 - - - - NNE 0 0 0 0 1010.6 - 0.0
16/10:30pm 24.7 - - - - NNE 0 0 0 0 1010.4 1010.3 0.0
16/10:00pm 24.9 - - - - CALM 0 0 0 0 1010.4 - 0.0
16/09:30pm 24.9 - - - - CALM 0 0 0 0 1010.2 1010.1 0.0
16/09:00pm 25.3 - - - - CALM 0 0 0 0 1009.9 1009.8 0.0
16/08:30pm 25.3 - - - - CALM 0 0 0 0 1009.5 1009.4 0.0
16/08:00pm 25.8 - - - - CALM 0 0 0 0 1009.2 - 0.0
16/07:30pm 26.3 - - - - CALM 0 0 0 0 1008.9 1008.8 0.0
16/07:00pm 26.8 - - - - CALM 0 0 0 0 1008.6 - 0.0
16/06:30pm 27.6 - - - - WNW 2 4 1 2 1008.4 1008.3 0.0
16/06:00pm 28.6 - - - - WNW 7 13 4 7 1008.4 1008.3 0.0
16/05:30pm 30.4 - - - - N 4 7 2 4 1007.8 1007.7 0.0
16/05:00pm 32.5 - - - - NNE 6 9 3 5 1007.6 - 0.0
16/04:30pm 32.4 - - - - NNE 6 11 3 6 1007.4 1007.3 0.0
16/04:00pm 30.8 - - - - N 7 11 4 6 1007.3 - 0.0
16/03:30pm 32.1 - - - - NE 7 11 4 6 1007.4 1007.3 0.0
16/03:00pm 33.8 - - - - NE 6 9 3 5 1007.6 1007.5 0.0
16/02:30pm 33.6 - - - - NNE 6 11 3 6 1007.9 1007.8 0.0
16/02:00pm 33.7 - - - - NNE 7 11 4 6 1008.2 - 0.0
16/01:30pm 34.1 - - - - N 7 11 4 6 1008.4 1008.3 0.0
16/01:00pm 33.8 - - - - NE 6 11 3 6 1008.7 - 0.0
16/12:30pm 33.0 - - - - E 4 7 2 4 1009.2 1009.1 0.0
16/12:00pm 32.3 - - - - NNE 4 7 2 4 1009.7 1009.6 0.0
16/11:30am 32.5 - - - - ESE 2 6 1 3 1010.3 1010.2 0.0
16/11:00am 32.3 - - - - ESE 4 9 2 5 1010.8 - 0.0
16/10:30am 29.9 - - - - SE 2 4 1 2 1011.1 1011.0 0.0
16/10:00am 28.5 - - - - CALM 0 4 0 2 1011.0 - 0.0
16/09:30am 27.7 - - - - SE 0 0 0 0 1011.3 1011.2 0.0
16/09:00am 26.9 - - - - ENE 2 6 1 3 1011.3 1011.2 0.0
16/08:30am 25.9 - - - - CALM 0 0 0 0 1011.2 1011.1 0.0
16/08:00am 25.5 - - - - S 4 6 2 3 1011.2 - 0.0
16/07:30am 24.9 - - - - CALM 0 4 0 2 1010.9 1010.8 0.0
16/07:00am 24.7 - - - - S 4 6 2 3 1010.6 - 0.0
16/06:30am 24.3 - - - - CALM 0 0 0 0 1010.4 1010.3 0.0
16/06:00am 24.2 - - - - SSE 0 0 0 0 1010.2 1010.1 0.0
16/05:30am 23.8 - - - - CALM 0 0 0 0 1010.0 1009.9 0.0
16/05:00am 23.2 - - - - CALM 0 2 0 1 1009.8 - 0.0
16/04:30am 23.2 - - - - CALM 0 0 0 0 1009.7 1009.6 0.0
16/04:00am 23.1 - - - - CALM 0 0 0 0 1009.4 - 0.0
16/03:30am 23.1 - - - - CALM 0 0 0 0 1009.4 1009.3 0.0
16/03:00am 23.2 - - - - CALM 0 0 0 0 1009.3 1009.2 0.0
16/02:30am 23.4 - - - - CALM 0 0 0 0 1009.4 1009.3 0.0
16/02:00am 23.6 - - - - CALM 0 0 0 0 1009.7 - 0.0
16/01:30am 23.6 - - - - CALM 0 0 0 0 1009.9 1009.8 0.0
16/01:00am 23.8 - - - - CALM 0 0 0 0 1010.2 - 0.0
16/12:30am 23.9 - - - - CALM 0 0 0 0 1010.4 1010.3 0.0
16/12:00am 24.2 - - - - NNE 0 0 0 0 1010.6 1010.5 0.0
 
Date/Time
CST
Temp
°C
App
Temp
°C
Dew
Point
Rel
Hum
%
Delta-T
°C
Wind Press
QNH
hPa
Press
MSL
hPa
Rain
since 9 am
mm
Dir
 
Spd
km/h
Gust
km/h
Spd
kts
Gust
kts
15/11:30pm 24.5 - - - - CALM 0 0 0 0 1010.5 1010.4 0.0
15/11:00pm 24.7 - - - - CALM 0 0 0 0 1010.6 - 0.0
15/10:30pm 25.0 - - - - CALM 0 0 0 0 1010.7 1010.6 0.0
15/10:00pm 25.2 - - - - CALM 0 0 0 0 1010.8 - 0.0
15/09:30pm 25.3 - - - - CALM 0 0 0 0 1010.7 1010.6 0.0
15/09:00pm 25.6 - - - - CALM 0 0 0 0 1010.6 1010.5 0.0
15/08:30pm 25.9 - - - - CALM 0 0 0 0 1010.2 1010.1 0.0
15/08:00pm 26.3 - - - - CALM 0 0 0 0 1009.9 - 0.0
15/07:30pm 26.8 - - - - CALM 0 0 0 0 1009.6 1009.5 0.0
15/07:00pm 27.4 - - - - CALM 0 0 0 0 1009.1 - 0.0
15/06:30pm 28.3 - - - - NNE 2 4 1 2 1008.8 1008.7 0.0
15/06:00pm 29.2 - - - - ENE 4 6 2 3 1008.6 1008.5 0.0
15/05:30pm 29.6 - - - - ENE 6 11 3 6 1008.6 1008.5 0.0
15/05:00pm 30.0 - - - - NE 7 13 4 7 1008.3 - 0.0
15/04:30pm 30.3 - - - - ENE 7 17 4 9 1008.1 1008.0 0.0
15/04:00pm 30.2 - - - - NE 7 13 4 7 1008.1 - 0.0
15/03:30pm 30.1 - - - - NNE 9 15 5 8 1008.2 1008.1 0.0
15/03:00pm 30.9 - - - - ENE 11 22 6 12 1008.3 1008.2 0.0
15/02:30pm 32.7 - - - - E 15 28 8 15 1008.4 1008.3 0.0
15/02:00pm 33.5 - - - - ENE 11 24 6 13 1008.6 - 0.0
15/01:30pm 33.1 - - - - E 13 20 7 11 1009.1 1009.0 0.0
15/01:00pm 33.4 - - - - ENE 9 17 5 9 1009.7 - 0.0
15/12:30pm 33.5 - - - - ENE 9 17 5 9 1010.0 1009.9 0.0
15/12:00pm 32.9 - - - - E 7 13 4 7 1010.4 1010.3 0.0
15/11:30am 32.9 - - - - ESE 9 15 5 8 1011.0 1010.9 0.0
15/11:00am 31.6 - - - - ESE 7 15 4 8 1011.4 - 0.0
15/10:30am 31.4 - - - - ESE 6 11 3 6 1011.6 1011.5 0.0
15/10:00am 30.5 - - - - SE 9 13 5 7 1011.7 - 0.0
15/09:30am 29.8 - - - - ESE 7 11 4 6 1011.6 1011.5 0.0
15/09:00am 28.5 - - - - SE 6 11 3 6 1011.6 1011.5 0.0
15/08:30am 27.6 - - - - CALM 0 4 0 2 1011.4 1011.3 0.0
15/08:00am 26.6 - - - - CALM 0 4 0 2 1011.2 - 0.0
15/07:30am 25.4 - - - - CALM 0 0 0 0 1010.8 1010.7 0.0
15/07:00am 25.2 - - - - CALM 0 0 0 0 1010.3 - 0.0
15/06:30am 25.3 - - - - CALM 0 0 0 0 1009.9 1009.8 0.0
15/06:00am 25.2 - - - - CALM 0 0 0 0 1009.6 1009.5 0.0
15/05:30am 25.2 - - - - CALM 0 0 0 0 1009.2 1009.1 0.0
15/05:00am 25.2 - - - - CALM 0 0 0 0 1009.1 - 0.0
15/04:30am 25.1 - - - - CALM 0 0 0 0 1009.1 1009.0 0.0
15/04:00am 25.0 - - - - CALM 0 0 0 0 1009.1 - 0.0
15/03:30am 24.9 - - - - CALM 0 0 0 0 1009.2 1009.1 0.0
15/03:00am 24.7 - - - - CALM 0 0 0 0 1009.2 1009.1 0.0
15/02:30am 24.3 - - - - CALM 0 0 0 0 1009.3 1009.2 0.0
15/02:00am 24.4 - - - - CALM 0 0 0 0 1009.5 - 0.0
15/01:30am 24.6 - - - - CALM 0 0 0 0 1009.5 1009.4 0.0
15/01:00am 24.9 - - - - CALM 0 0 0 0 1009.7 - 0.0
15/12:30am 25.1 - - - - CALM 0 0 0 0 1009.9 1009.8 0.0
15/12:00am 25.3 - - - - CALM 0 0 0 0 1010.3 1010.2 0.0
 
Date/Time
CST
Temp
°C
App
Temp
°C
Dew
Point
Rel
Hum
%
Delta-T
°C
Wind Press
QNH
hPa
Press
MSL
hPa
Rain
since 9 am
mm
Dir
 
Spd
km/h
Gust
km/h
Spd
kts
Gust
kts
14/11:30pm 25.5 - - - - SSE 4 6 2 3 1010.2 1010.1 0.0
14/11:00pm 25.8 - - - - CALM 0 4 0 2 1010.2 - 0.0
14/10:30pm 26.3 - - - - CALM 0 0 0 0 1010.2 1010.1 0.0
14/10:00pm 26.9 - - - - CALM 0 0 0 0 1010.4 - 0.0
14/09:30pm 27.1 - - - - CALM 0 0 0 0 1010.4 1010.3 0.0
14/09:00pm 27.2 - - - - CALM 0 0 0 0 1010.3 1010.2 0.0
14/08:30pm 27.3 - - - - CALM 0 4 0 2 1010.1 1010.0 0.0
14/08:00pm 27.7 - - - - CALM 0 0 0 0 1009.7 - 0.0
14/07:30pm 27.9 - - - - CALM 0 0 0 0 1009.4 1009.3 0.0
14/07:00pm 28.1 - - - - CALM 0 0 0 0 1008.8 - 0.0
14/06:30pm 28.6 - - - - CALM 0 2 0 1 1008.5 1008.4 0.0
14/06:00pm 29.3 - - - - NNE 4 6 2 3 1008.2 1008.1 0.0
14/05:30pm 30.1 - - - - NE 2 4 1 2 1007.9 1007.8 0.0
14/05:00pm 30.5 - - - - NE 6 7 3 4 1007.6 - 0.0
14/04:30pm 31.5 - - - - E 4 7 2 4 1007.3 1007.2 0.0
14/04:00pm 31.4 - - - - ESE 4 6 2 3 1007.3 - 0.0
14/03:30pm 31.4 - - - - NE 4 6 2 3 1007.2 1007.1 0.0
14/03:00pm 31.5 - - - - NE 4 7 2 4 1007.6 1007.5 0.0
14/02:30pm 30.9 - - - - ENE 6 11 3 6 1007.7 1007.6 0.0
14/02:00pm 31.7 - - - - ENE 7 13 4 7 1008.0 - 0.0
14/01:30pm 31.7 - - - - ENE 9 19 5 10 1008.3 1008.2 0.0
14/01:00pm 31.7 - - - - E 9 19 5 10 1008.8 - 0.0
14/12:30pm 31.4 - - - - ENE 11 24 6 13 1009.3 1009.2 0.0
14/12:00pm 31.1 - - - - ENE 11 22 6 12 1010.0 1009.9 0.0
14/11:30am 29.9 - - - - ENE 13 22 7 12 1010.5 1010.4 0.0
14/11:00am 29.4 - - - - ENE 15 24 8 13 1010.7 - 0.0
14/10:30am 28.9 - - - - ENE 13 26 7 14 1011.0 1010.9 0.0
14/10:00am 28.5 - - - - ENE 9 15 5 8 1011.0 - 0.0
14/09:30am 27.8 - - - - ESE 6 7 3 4 1010.8 1010.7 0.0
14/09:00am 27.0 - - - - E 4 9 2 5 1010.5 1010.4 0.0
14/08:30am 26.3 - - - - E 6 7 3 4 1010.2 1010.1 0.0
14/08:00am 25.4 - - - - ESE 2 4 1 2 1009.9 - 0.0
14/07:30am 24.9 - - - - E 2 4 1 2 1009.6 1009.5 0.0
14/07:00am 24.9 - - - - CALM 0 0 0 0 1009.3 - 0.0
14/06:30am 24.7 - - - - SE 2 4 1 2 1009.3 1009.2 0.0
14/06:00am 24.9 - - - - CALM 0 0 0 0 1008.8 1008.7 0.0
14/05:30am 24.8 - - - - CALM 0 0 0 0 1008.5 1008.4 0.0
14/05:00am 24.6 - - - - SW 2 6 1 3 1008.3 - 0.0
14/04:30am 24.6 - - - - WSW 4 6 2 3 1008.2 1008.1 0.0
14/04:00am 24.7 - - - - S 4 6 2 3 1008.3 - 0.0
14/03:30am 24.9 - - - - S 4 6 2 3 1008.5 1008.4 0.0
14/03:00am 25.0 - - - - SW 4 7 2 4 1008.5 1008.4 0.0
14/02:30am 25.2 - - - - SSW 4 11 2 6 1008.5 1008.4 0.0
14/02:00am 25.1 - - - - CALM 0 0 0 0 1008.8 - 0.0
14/01:30am 25.0 - - - - CALM 0 0 0 0 1009.2 1009.1 0.0
14/01:00am 24.9 - - - - S 2 4 1 2 1009.4 - 0.0
14/12:30am 25.0 - - - - S 4 7 2 4 1009.7 1009.6 0.0
14/12:00am 24.8 - - - - CALM 0 0 0 0 1009.7 1009.6 0.0
 
Date/Time
CST
Temp
°C
App
Temp
°C
Dew
Point
Rel
Hum
%
Delta-T
°C
Wind Press
QNH
hPa
Press
MSL
hPa
Rain
since 9 am
mm
Dir
 
Spd
km/h
Gust
km/h
Spd
kts
Gust
kts
13/11:30pm 24.7 - - - - CALM 0 0 0 0 1009.5 1009.4 0.0

Other Formats:

Comma delimited format used in spreadsheet applications
http://www.bom.gov.au/fwo/IDD60801/IDD60801.94109.axf

JavaScript Object Notation format (JSON) in row-major order
http://www.bom.gov.au/fwo/IDD60801/IDD60801.94109.json